createdAt,value
2023-04-05T00:01:33.772Z,54.91
2023-04-05T00:04:00.876Z,54.64
2023-04-05T00:06:29.093Z,54.60
2023-04-05T00:09:05.100Z,55.01
2023-04-05T00:11:33.383Z,54.31
2023-04-05T00:14:01.062Z,54.62
2023-04-05T00:16:29.010Z,55.62
2023-04-05T00:18:57.302Z,55.48
2023-04-05T00:21:24.654Z,55.81
2023-04-05T00:23:53.600Z,55.46
2023-04-05T00:26:21.309Z,55.95
2023-04-05T00:28:52.705Z,55.38
2023-04-05T00:31:19.182Z,56.21
2023-04-05T00:33:46.188Z,55.39
2023-04-05T00:36:14.859Z,55.72
2023-04-05T00:38:42.126Z,55.54
2023-04-05T00:41:09.096Z,56.02
2023-04-05T00:43:35.591Z,56.24
2023-04-05T00:46:02.518Z,56.44
2023-04-05T00:48:29.569Z,55.98
2023-04-05T00:50:57.507Z,55.49
2023-04-05T00:53:24.284Z,56.56
2023-04-05T00:55:54.326Z,55.77
2023-04-05T00:58:24.743Z,55.70
2023-04-05T01:00:51.370Z,56.15
2023-04-05T01:03:20.182Z,56.60
2023-04-05T01:06:00.676Z,56.37
2023-04-05T01:08:43.737Z,56.20
2023-04-05T01:11:12.048Z,56.10
2023-04-05T01:13:39.408Z,56.04
2023-04-05T01:16:06.272Z,56.72
2023-04-05T01:18:36.376Z,56.86
2023-04-05T01:21:23.061Z,56.53
2023-04-05T01:24:09.859Z,56.05
2023-04-05T01:27:01.454Z,56.96
2023-04-05T01:29:37.366Z,56.70
2023-04-05T01:32:10.822Z,56.50
2023-04-05T01:34:44.950Z,57.25
2023-04-05T01:37:18.086Z,57.67
2023-04-05T01:39:47.427Z,57.79
2023-04-05T01:42:13.976Z,57.91
2023-04-05T01:44:40.516Z,57.33
2023-04-05T01:47:06.932Z,57.02
2023-04-05T01:49:33.335Z,58.20
2023-04-05T01:51:59.743Z,57.67
2023-04-05T01:54:27.022Z,58.10
2023-04-05T01:56:53.513Z,58.46
2023-04-05T01:59:19.953Z,58.64
2023-04-05T02:01:46.393Z,58.71
2023-04-05T02:04:12.847Z,58.49
2023-04-05T02:06:41.065Z,59.64
2023-04-05T02:09:07.601Z,59.26
2023-04-05T02:11:34.051Z,59.23
2023-04-05T02:14:00.960Z,59.28
2023-04-05T02:16:27.659Z,60.29
2023-04-05T02:18:57.836Z,59.83
2023-04-05T02:21:26.014Z,60.22
2023-04-05T02:23:53.319Z,60.14
2023-04-05T02:26:19.780Z,59.96
2023-04-05T02:28:47.144Z,60.53
2023-04-05T02:31:14.500Z,60.81
2023-04-05T02:33:42.014Z,60.52
2023-04-05T02:36:10.792Z,60.75
2023-04-05T02:38:37.980Z,60.89
2023-04-05T02:41:07.794Z,60.46
2023-04-05T02:43:35.253Z,60.36
2023-04-05T02:46:01.830Z,60.36
2023-04-05T02:48:28.425Z,61.14
2023-04-05T02:50:55.968Z,60.45
2023-04-05T02:53:22.427Z,61.28
2023-04-05T02:55:56.880Z,61.16
2023-04-05T02:58:24.324Z,60.75
2023-04-05T03:00:51.928Z,61.67
2023-04-05T03:03:24.552Z,60.80
2023-04-05T03:06:00.332Z,61.50
2023-04-05T03:08:29.310Z,61.34
2023-04-05T03:11:01.644Z,61.08
2023-04-05T03:13:28.210Z,61.81
2023-04-05T03:15:55.825Z,62.13
2023-04-05T03:18:26.624Z,62.33
2023-04-05T03:20:59.214Z,62.50
2023-04-05T03:23:28.550Z,62.56
2023-04-05T03:26:00.468Z,62.44
2023-04-05T03:28:32.331Z,62.77
2023-04-05T03:31:02.703Z,62.39
2023-04-05T03:33:29.528Z,62.92
2023-04-05T03:35:56.174Z,62.31
2023-04-05T03:38:22.736Z,63.27
2023-04-05T03:41:09.455Z,62.88
2023-04-05T03:43:36.624Z,63.01
2023-04-05T03:46:03.170Z,63.41
2023-04-05T03:48:30.109Z,62.96
2023-04-05T03:50:56.667Z,63.65
2023-04-05T03:53:23.413Z,62.85
2023-04-05T03:55:54.177Z,63.41
2023-04-05T03:58:27.654Z,63.45
2023-04-05T04:00:56.724Z,62.82
2023-04-05T04:03:25.986Z,63.14
2023-04-05T04:05:52.708Z,62.84
2023-04-05T04:08:20.196Z,62.96
2023-04-05T04:10:46.892Z,63.29
2023-04-05T04:13:23.228Z,63.17
2023-04-05T04:16:03.921Z,63.11
2023-04-05T04:18:49.376Z,63.10
2023-04-05T04:21:39.433Z,63.66
2023-04-05T04:24:20.540Z,63.58
2023-04-05T04:27:06.798Z,63.31
2023-04-05T04:30:04.982Z,64.32
2023-04-05T04:32:55.325Z,63.61
2023-04-05T04:35:38.957Z,63.25
2023-04-05T04:38:20.581Z,63.70
2023-04-05T04:41:11.368Z,63.96
2023-04-05T04:43:43.812Z,63.98
2023-04-05T04:46:34.595Z,64.76
2023-04-05T04:49:07.049Z,64.09
2023-04-05T04:51:33.919Z,64.26
2023-04-05T04:54:00.703Z,63.90
2023-04-05T04:56:27.414Z,64.35
2023-04-05T04:58:56.603Z,63.56
2023-04-05T05:01:25.123Z,64.11
2023-04-05T05:03:52.403Z,63.77
2023-04-05T05:06:27.185Z,63.47
2023-04-05T05:08:54.012Z,62.79
2023-04-05T05:11:20.814Z,63.48
2023-04-05T05:13:50.522Z,63.30
2023-04-05T05:16:23.437Z,62.54
2023-04-05T05:18:52.963Z,62.48
2023-04-05T05:21:20.927Z,62.88
2023-04-05T05:23:53.437Z,63.13
2023-04-05T05:26:19.869Z,62.89
2023-04-05T05:28:48.663Z,62.95
2023-04-05T05:31:17.557Z,62.67
2023-04-05T05:33:47.760Z,61.85
2023-04-05T05:36:14.142Z,62.24
2023-04-05T05:38:42.988Z,62.46
2023-04-05T05:41:09.403Z,62.08
2023-04-05T05:43:35.886Z,61.22
2023-04-05T05:46:02.484Z,61.67
2023-04-05T05:48:28.972Z,60.90
2023-04-05T05:50:56.314Z,61.18
2023-04-05T05:53:22.954Z,61.42
2023-04-05T05:55:49.328Z,60.67
2023-04-05T05:58:15.912Z,61.26
2023-04-05T06:00:42.703Z,60.55
2023-04-05T06:03:09.920Z,61.04
2023-04-05T06:05:36.581Z,61.26
2023-04-05T06:08:03.913Z,60.76
2023-04-05T06:10:31.101Z,60.02
2023-04-05T06:12:57.513Z,59.62
2023-04-05T06:15:23.954Z,60.35
2023-04-05T06:17:50.401Z,60.05
2023-04-05T06:20:16.910Z,59.79
2023-04-05T06:22:44.427Z,59.70
2023-04-05T06:25:12.877Z,59.63
2023-04-05T06:27:39.494Z,59.04
2023-04-05T06:30:06.780Z,59.00
2023-04-05T06:32:33.242Z,59.00
2023-04-05T06:35:00.853Z,58.09
2023-04-05T06:37:27.247Z,57.73
2023-04-05T06:39:53.789Z,58.32
2023-04-05T06:42:20.302Z,57.83
2023-04-05T06:44:53.288Z,56.88
2023-04-05T06:47:19.689Z,57.42
2023-04-05T06:49:46.085Z,56.79
2023-04-05T06:52:12.480Z,57.62
2023-04-05T06:54:39.526Z,57.23
2023-04-05T06:57:06.049Z,56.46
2023-04-05T06:59:32.626Z,56.95
2023-04-05T07:01:59.107Z,56.95
2023-04-05T07:04:26.645Z,56.21
2023-04-05T07:06:53.852Z,56.38
2023-04-05T07:09:21.259Z,56.27
2023-04-05T07:11:47.659Z,56.63
2023-04-05T07:14:14.039Z,57.18
2023-04-05T07:16:40.466Z,56.81
2023-04-05T07:19:07.250Z,56.50
2023-04-05T07:21:33.703Z,56.45
2023-04-05T07:24:01.889Z,56.20
2023-04-05T07:26:28.955Z,55.68
2023-04-05T07:28:55.427Z,55.04
2023-04-05T07:31:21.829Z,55.16
2023-04-05T07:33:48.712Z,55.27
2023-04-05T07:36:15.249Z,54.89
2023-04-05T07:38:41.822Z,54.63
2023-04-05T07:41:08.221Z,54.16
2023-04-05T07:43:34.620Z,53.83
2023-04-05T07:46:03.083Z,54.00
2023-04-05T07:48:30.544Z,53.88
2023-04-05T07:50:57.581Z,54.14
2023-04-05T07:53:24.051Z,54.15
2023-04-05T07:55:50.431Z,54.32
2023-04-05T07:58:16.829Z,53.92
2023-04-05T08:00:43.473Z,53.95
2023-04-05T08:03:10.135Z,53.66
2023-04-05T08:05:36.589Z,53.92
2023-04-05T08:08:03.183Z,53.99
2023-04-05T08:10:29.553Z,54.59
2023-04-05T08:12:56.028Z,54.35
2023-04-05T08:15:22.533Z,53.80
2023-04-05T08:17:49.040Z,54.31
2023-04-05T08:20:15.741Z,53.38
2023-04-05T08:22:42.202Z,54.07
2023-04-05T08:25:09.190Z,53.99
2023-04-05T08:27:35.653Z,53.21
2023-04-05T08:30:02.070Z,53.29
2023-04-05T08:32:28.487Z,53.04
2023-04-05T08:34:54.931Z,53.08
2023-04-05T08:37:21.336Z,52.85
2023-04-05T08:39:47.825Z,52.42
2023-04-05T08:42:23.483Z,52.34
2023-04-05T08:44:52.467Z,52.16
2023-04-05T08:47:19.592Z,51.96
2023-04-05T08:49:47.347Z,51.66
2023-04-05T08:52:13.870Z,52.35
2023-04-05T08:54:40.396Z,51.95
2023-04-05T08:57:10.367Z,52.01
2023-04-05T08:59:40.969Z,51.75
2023-04-05T09:02:16.211Z,51.57
2023-04-05T09:04:45.055Z,51.23
2023-04-05T09:07:13.657Z,50.95
2023-04-05T09:09:44.156Z,50.67
2023-04-05T09:12:11.220Z,50.05
2023-04-05T09:14:38.517Z,50.55
2023-04-05T09:17:06.420Z,49.22
2023-04-05T09:19:32.985Z,49.22
2023-04-05T09:22:06.985Z,47.99
2023-04-05T09:24:43.875Z,48.70
2023-04-05T09:27:11.668Z,48.86
2023-04-05T09:29:40.463Z,48.13
2023-04-05T09:32:10.599Z,45.80
2023-04-05T09:34:38.153Z,45.92
2023-04-05T09:37:20.521Z,45.79
2023-04-05T09:39:49.703Z,45.63
2023-04-05T09:42:19.289Z,45.32
2023-04-05T09:45:02.527Z,45.27
2023-04-05T09:47:36.524Z,46.20
2023-04-05T09:50:15.570Z,44.97
2023-04-05T09:52:43.408Z,44.45
2023-04-05T09:55:10.872Z,43.81
2023-04-05T09:57:39.566Z,43.27
2023-04-05T10:00:17.041Z,43.78
2023-04-05T10:02:43.668Z,43.07
2023-04-05T10:05:13.597Z,42.83
2023-04-05T10:07:43.160Z,42.20
2023-04-05T10:10:12.292Z,41.74
2023-04-05T10:12:41.399Z,41.04
2023-04-05T10:15:11.295Z,41.80
2023-04-05T10:18:03.500Z,41.63
2023-04-05T10:20:32.991Z,41.34
2023-04-05T10:23:10.437Z,41.40
2023-04-05T10:25:53.240Z,41.05
2023-04-05T10:28:34.530Z,40.88
2023-04-05T10:31:37.193Z,41.63
2023-04-05T10:34:06.721Z,41.78
2023-04-05T10:36:46.677Z,42.01
2023-04-05T10:39:25.492Z,40.64
2023-04-05T10:42:27.554Z,41.37
2023-04-05T10:45:02.415Z,40.97
2023-04-05T10:47:31.956Z,39.62
2023-04-05T10:50:03.592Z,38.83
2023-04-05T10:52:30.656Z,39.57
2023-04-05T10:54:59.865Z,40.18
2023-04-05T10:57:27.235Z,40.41
2023-04-05T10:59:54.771Z,40.52
2023-04-05T11:02:22.008Z,39.32
2023-04-05T11:04:56.881Z,39.64
2023-04-05T11:07:23.857Z,39.77
2023-04-05T11:10:02.316Z,39.43
2023-04-05T11:12:47.004Z,37.95
2023-04-05T11:15:25.429Z,37.27
2023-04-05T11:18:17.022Z,36.62
2023-04-05T11:20:45.052Z,37.68
2023-04-05T11:23:13.448Z,37.93
2023-04-05T11:25:41.339Z,38.23
2023-04-05T11:28:11.842Z,38.37
2023-04-05T11:30:48.976Z,37.57
2023-04-05T11:33:37.954Z,37.46
2023-04-05T11:36:04.883Z,36.92
2023-04-05T11:38:31.446Z,36.06
2023-04-05T11:41:25.688Z,35.30
2023-04-05T11:43:53.645Z,33.38
2023-04-05T11:46:21.286Z,34.08
2023-04-05T11:48:51.059Z,35.27
2023-04-05T11:51:20.833Z,35.03
2023-04-05T11:53:47.424Z,35.78
2023-04-05T11:56:15.968Z,35.46
2023-04-05T11:58:42.742Z,35.95
2023-04-05T12:01:09.635Z,35.36
2023-04-05T12:03:37.471Z,35.47
2023-04-05T12:06:06.211Z,35.94
2023-04-05T12:08:49.968Z,33.80
2023-04-05T12:11:23.658Z,33.56
2023-04-05T12:13:54.222Z,32.70
2023-04-05T12:16:20.924Z,33.14
2023-04-05T12:18:57.640Z,32.59
2023-04-05T12:21:26.198Z,31.11
2023-04-05T12:23:53.778Z,31.61
2023-04-05T12:26:21.215Z,33.14
2023-04-05T12:28:58.640Z,33.25
2023-04-05T12:31:44.560Z,33.09
2023-04-05T12:34:12.871Z,33.60
2023-04-05T12:36:43.751Z,32.42
2023-04-05T12:39:10.493Z,33.00
2023-04-05T12:41:37.430Z,31.63
2023-04-05T12:44:15.664Z,31.49
2023-04-05T12:46:45.910Z,30.83
2023-04-05T12:49:16.694Z,30.43
2023-04-05T12:51:47.461Z,30.60
2023-04-05T12:54:15.183Z,32.14
2023-04-05T12:56:42.310Z,33.29
2023-04-05T12:59:08.811Z,32.50
2023-04-05T13:01:35.558Z,32.46
2023-04-05T13:04:14.694Z,32.50
2023-04-05T13:06:42.253Z,32.50
2023-04-05T13:09:08.791Z,31.13
2023-04-05T13:11:35.199Z,31.18
2023-04-05T13:14:01.630Z,31.61
2023-04-05T13:16:28.091Z,30.73
2023-04-05T13:18:54.560Z,31.96
2023-04-05T13:21:21.123Z,31.64
2023-04-05T13:23:47.515Z,30.86
2023-04-05T13:26:13.930Z,30.85
2023-04-05T13:28:40.459Z,31.64
2023-04-05T13:31:08.275Z,31.55
2023-04-05T13:33:34.915Z,30.47
2023-04-05T13:36:01.410Z,31.10
2023-04-05T13:38:27.885Z,30.93
2023-04-05T13:40:54.406Z,30.73
2023-04-05T13:43:20.826Z,31.10
2023-04-05T13:45:47.195Z,31.74
2023-04-05T13:48:13.583Z,32.04
2023-04-05T13:50:40.410Z,32.73
2023-04-05T13:53:07.436Z,33.31
2023-04-05T13:55:33.894Z,33.99
2023-04-05T13:58:00.476Z,34.31
2023-04-05T14:00:26.873Z,33.94
2023-04-05T14:02:53.416Z,32.46
2023-04-05T14:05:19.891Z,31.81
2023-04-05T14:07:46.649Z,30.85
2023-04-05T14:10:13.220Z,30.81
2023-04-05T14:12:39.702Z,30.12
2023-04-05T14:15:06.671Z,30.35
2023-04-05T14:17:33.270Z,30.23
2023-04-05T14:19:59.736Z,31.02
2023-04-05T14:22:26.266Z,31.19
2023-04-05T14:24:52.716Z,30.27
2023-04-05T14:27:22.137Z,29.96
2023-04-05T14:29:48.648Z,31.22
2023-04-05T14:32:15.760Z,32.04
2023-04-05T14:34:42.160Z,31.52
2023-04-05T14:37:08.709Z,31.54
2023-04-05T14:39:35.505Z,31.42
2023-04-05T14:42:02.457Z,31.79
2023-04-05T14:44:29.086Z,30.41
2023-04-05T14:46:55.577Z,30.48
2023-04-05T14:49:22.030Z,30.10
2023-04-05T14:51:48.523Z,30.75
2023-04-05T14:54:14.952Z,30.56
2023-04-05T14:56:41.402Z,30.69
2023-04-05T14:59:07.884Z,31.37
2023-04-05T15:01:34.746Z,31.74
2023-04-05T15:04:01.313Z,31.25
2023-04-05T15:06:28.605Z,31.49
2023-04-05T15:08:54.991Z,30.26
2023-04-05T15:11:21.656Z,30.30
2023-04-05T15:13:48.106Z,30.67
2023-04-05T15:16:14.593Z,31.96
2023-04-05T15:18:41.107Z,32.01
2023-04-05T15:21:07.585Z,32.46
2023-04-05T15:23:34.225Z,32.75
2023-04-05T15:26:00.831Z,32.95
2023-04-05T15:28:27.266Z,33.19
2023-04-05T15:30:53.745Z,33.38
2023-04-05T15:33:20.791Z,33.85
2023-04-05T15:35:47.332Z,34.05
2023-04-05T15:38:13.758Z,34.18
2023-04-05T15:40:40.246Z,34.31
2023-04-05T15:43:06.740Z,34.55
2023-04-05T15:45:33.137Z,34.98
2023-04-05T15:47:59.661Z,35.39
2023-04-05T15:50:26.245Z,35.49
2023-04-05T15:52:52.753Z,35.73
2023-04-05T15:55:19.345Z,35.60
2023-04-05T15:57:45.984Z,35.82
2023-04-05T16:00:13.098Z,35.81
2023-04-05T16:02:39.691Z,35.58
2023-04-05T16:05:06.472Z,36.71
2023-04-05T16:07:32.930Z,36.20
2023-04-05T16:09:59.320Z,36.45
2023-04-05T16:12:25.895Z,36.39
2023-04-05T16:14:52.339Z,36.85
2023-04-05T16:17:18.794Z,37.40
2023-04-05T16:19:45.195Z,37.31
2023-04-05T16:22:11.686Z,37.87
2023-04-05T16:24:39.135Z,37.41
2023-04-05T16:27:06.180Z,37.61
2023-04-05T16:29:33.084Z,37.90
2023-04-05T16:31:59.660Z,38.02
2023-04-05T16:34:26.419Z,37.92
2023-04-05T16:36:52.874Z,38.12
2023-04-05T16:39:19.329Z,38.06
2023-04-05T16:41:45.870Z,38.28
2023-04-05T16:44:12.305Z,37.97
2023-04-05T16:46:39.730Z,38.31
2023-04-05T16:49:06.286Z,37.70
2023-04-05T16:51:36.255Z,38.16
2023-04-05T16:54:02.742Z,37.97
2023-04-05T16:56:29.196Z,38.43
2023-04-05T16:58:57.400Z,38.15
2023-04-05T17:01:23.950Z,38.84
2023-04-05T17:03:50.413Z,38.51
2023-04-05T17:06:16.825Z,38.88
2023-04-05T17:08:43.269Z,38.78
2023-04-05T17:11:10.067Z,39.98
2023-04-05T17:13:36.590Z,39.28
2023-04-05T17:16:03.116Z,39.63
2023-04-05T17:18:29.590Z,39.52
2023-04-05T17:20:56.271Z,40.00
2023-04-05T17:23:23.965Z,40.05
2023-04-05T17:25:50.444Z,39.73
2023-04-05T17:28:16.824Z,39.17
2023-04-05T17:30:43.531Z,39.48
2023-04-05T17:33:09.984Z,40.69
2023-04-05T17:35:36.658Z,40.08
2023-04-05T17:38:03.458Z,40.48
2023-04-05T17:40:31.000Z,40.46
2023-04-05T17:42:57.493Z,40.11
2023-04-05T17:45:23.915Z,41.03
2023-04-05T17:47:50.409Z,41.19
2023-04-05T17:50:17.062Z,40.93
2023-04-05T17:52:43.543Z,41.52
2023-04-05T17:55:10.330Z,42.12
2023-04-05T17:57:36.783Z,42.58
2023-04-05T18:00:04.101Z,42.16
2023-04-05T18:02:31.417Z,42.08
2023-04-05T18:04:57.844Z,43.25
2023-04-05T18:07:24.238Z,42.63
2023-04-05T18:09:50.725Z,42.55
2023-04-05T18:12:17.169Z,43.20
2023-04-05T18:14:43.562Z,43.21
2023-04-05T18:17:10.023Z,43.73
2023-04-05T18:19:36.651Z,43.34
2023-04-05T18:22:03.068Z,43.83
2023-04-05T18:24:29.717Z,44.08
2023-04-05T18:26:56.202Z,44.21
2023-04-05T18:29:28.032Z,44.38
2023-04-05T18:31:55.746Z,45.05
2023-04-05T18:34:23.783Z,45.19
2023-04-05T18:36:50.992Z,45.76
2023-04-05T18:39:19.380Z,45.04
2023-04-05T18:41:45.833Z,45.31
2023-04-05T18:44:12.933Z,45.23
2023-04-05T18:46:39.384Z,45.86
2023-04-05T18:49:06.084Z,46.14
2023-04-05T18:51:33.183Z,45.96
2023-04-05T18:54:00.021Z,46.12
2023-04-05T18:56:27.482Z,46.37
2023-04-05T18:58:53.912Z,46.68
2023-04-05T19:01:20.691Z,46.35
2023-04-05T19:03:47.985Z,47.10
2023-04-05T19:06:14.867Z,47.24
2023-04-05T19:08:41.473Z,47.60
2023-04-05T19:11:08.435Z,47.60
2023-04-05T19:13:34.838Z,47.82
2023-04-05T19:16:01.668Z,47.30
2023-04-05T19:18:29.696Z,47.29
2023-04-05T19:20:58.604Z,47.26
2023-04-05T19:23:26.368Z,48.04
2023-04-05T19:25:56.537Z,47.91
2023-04-05T19:28:27.058Z,48.46
2023-04-05T19:30:54.543Z,48.33
2023-04-05T19:33:21.852Z,48.92
2023-04-05T19:35:48.808Z,48.99
2023-04-05T19:38:15.330Z,48.77
2023-04-05T19:40:42.429Z,49.49
2023-04-05T19:43:09.979Z,49.15
2023-04-05T19:45:37.028Z,49.19
2023-04-05T19:48:25.916Z,48.98
2023-04-05T19:50:54.340Z,49.21
2023-04-05T19:53:44.872Z,49.29
2023-04-05T19:56:18.564Z,49.64
2023-04-05T19:58:46.766Z,49.71
2023-04-05T20:01:35.356Z,49.64
2023-04-05T20:04:15.427Z,50.63
2023-04-05T20:06:43.848Z,50.35
2023-04-05T20:09:12.635Z,50.43
2023-04-05T20:11:39.283Z,50.79
2023-04-05T20:14:08.488Z,50.58
2023-04-05T20:16:37.525Z,50.72
2023-04-05T20:19:06.803Z,50.29
2023-04-05T20:21:33.742Z,50.72
2023-04-05T20:24:01.440Z,50.84
2023-04-05T20:26:31.632Z,51.12
2023-04-05T20:29:01.079Z,51.32
2023-04-05T20:31:30.730Z,51.28
2023-04-05T20:34:11.630Z,51.52
2023-04-05T20:36:46.854Z,51.61
2023-04-05T20:39:13.259Z,51.39
2023-04-05T20:41:40.139Z,51.46
2023-04-05T20:44:06.977Z,52.13
2023-04-05T20:46:33.824Z,51.74
2023-04-05T20:49:00.705Z,51.98
2023-04-05T20:51:27.619Z,52.30
2023-04-05T20:53:55.419Z,52.31
2023-04-05T20:56:21.836Z,52.38
2023-04-05T20:58:48.275Z,52.02
2023-04-05T21:01:14.739Z,52.16
2023-04-05T21:03:42.520Z,52.11
2023-04-05T21:06:10.214Z,52.27
2023-04-05T21:08:37.853Z,52.29
2023-04-05T21:11:04.717Z,52.69
2023-04-05T21:13:31.248Z,52.18
2023-04-05T21:15:58.295Z,52.42
2023-04-05T21:18:25.405Z,52.81
2023-04-05T21:20:52.788Z,53.20
2023-04-05T21:23:21.344Z,53.19
2023-04-05T21:25:47.957Z,53.68
2023-04-05T21:28:18.446Z,53.81
2023-04-05T21:30:45.840Z,53.66
2023-04-05T21:33:12.807Z,54.07
2023-04-05T21:35:39.872Z,54.29
2023-04-05T21:38:06.618Z,54.44
2023-04-05T21:40:33.410Z,54.45
2023-04-05T21:43:00.151Z,54.74
2023-04-05T21:45:27.026Z,54.78
2023-04-05T21:47:53.907Z,55.31
2023-04-05T21:50:21.093Z,55.61
2023-04-05T21:52:47.745Z,55.67
2023-04-05T21:55:14.192Z,55.46
2023-04-05T21:57:40.710Z,55.59
2023-04-05T22:00:11.729Z,55.56
2023-04-05T22:02:41.219Z,55.58
2023-04-05T22:05:08.198Z,55.36
2023-04-05T22:07:35.737Z,56.17
2023-04-05T22:10:02.688Z,55.42
2023-04-05T22:12:29.157Z,55.38
2023-04-05T22:14:55.618Z,56.22
2023-04-05T22:17:22.092Z,55.99
2023-04-05T22:19:48.505Z,56.15
2023-04-05T22:22:16.025Z,56.14
2023-04-05T22:24:42.523Z,56.22
2023-04-05T22:27:09.332Z,55.83
2023-04-05T22:29:36.053Z,56.14
2023-04-05T22:32:02.594Z,55.52
2023-04-05T22:34:29.125Z,55.61
2023-04-05T22:36:55.767Z,55.63
2023-04-05T22:39:22.248Z,55.91
2023-04-05T22:41:48.672Z,55.31
2023-04-05T22:44:15.140Z,55.71
2023-04-05T22:46:41.589Z,55.93
2023-04-05T22:49:08.684Z,55.63
2023-04-05T22:51:35.197Z,56.50
2023-04-05T22:54:01.650Z,56.59
2023-04-05T22:56:28.013Z,56.38
2023-04-05T22:58:54.476Z,55.63
2023-04-05T23:01:20.993Z,56.41
2023-04-05T23:03:47.470Z,56.06
2023-04-05T23:06:14.756Z,56.50
2023-04-05T23:08:41.257Z,55.72
2023-04-05T23:11:07.672Z,55.76
2023-04-05T23:13:34.114Z,56.00
2023-04-05T23:16:00.597Z,56.09
2023-04-05T23:18:27.183Z,56.01
2023-04-05T23:20:53.606Z,56.80
2023-04-05T23:23:20.181Z,56.53
2023-04-05T23:25:46.584Z,56.40
2023-04-05T23:28:13.106Z,56.71
2023-04-05T23:30:39.514Z,56.41
2023-04-05T23:33:06.064Z,56.35
2023-04-05T23:35:32.562Z,56.50
2023-04-05T23:37:59.008Z,56.32
2023-04-05T23:40:25.630Z,56.70
2023-04-05T23:42:52.085Z,56.79
2023-04-05T23:45:18.460Z,56.34
2023-04-05T23:47:44.937Z,57.44
2023-04-05T23:50:11.454Z,57.29
2023-04-05T23:52:37.908Z,56.45
2023-04-05T23:55:04.819Z,56.20
2023-04-05T23:57:31.274Z,56.72
2023-04-05T23:59:57.698Z,56.81
